Time;durP1;ratioP1;P1;durP2;ratioP2;P2;SDS_P1;SDS_P2;PMS_P1;PMS_P2;Temp;Humidity;BMP_temperature;BMP_pressure;BME280_temperature;BME280_humidity;BME280_pressure;Samples;Min_cycle;Max_cycle;Signal;HPM_P1;HPM_P2
2023/08/11 00:00:50;;;;;;;5.97;2.22;;;13.60;99.90;;;;;;5015775;28;20030;-73
2023/08/11 00:03:16;;;;;;;3.47;2.30;;;13.60;99.90;;;;;;5015431;28;20030;-73
2023/08/11 00:05:42;;;;;;;4.20;2.05;;;13.50;99.90;;;;;;5014956;28;20105;-73
2023/08/11 00:08:08;;;;;;;3.72;2.05;;;13.50;99.90;;;;;;5014981;28;20018;-73
2023/08/11 00:10:34;;;;;;;7.10;2.30;;;13.50;99.90;;;;;;5014977;28;20067;-73
2023/08/11 00:13:01;;;;;;;5.30;2.63;;;13.50;99.90;;;;;;5014998;28;20022;-73
2023/08/11 00:15:31;;;;;;;3.92;2.55;;;13.40;99.90;;;;;;5013728;28;20403;-73
2023/08/11 00:18:00;;;;;;;6.28;2.33;;;13.40;99.90;;;;;;5014587;28;20075;-74
2023/08/11 00:20:28;;;;;;;3.47;2.40;;;13.40;99.90;;;;;;5014309;28;20387;-73
2023/08/11 00:22:54;;;;;;;5.57;2.70;;;13.40;99.90;;;;;;5014821;28;20021;-73
2023/08/11 00:25:19;;;;;;;5.10;2.75;;;13.40;99.90;;;;;;5014996;28;20033;-73
2023/08/11 00:27:45;;;;;;;4.53;2.67;;;13.30;99.90;;;;;;5014928;28;20411;-73
2023/08/11 00:30:11;;;;;;;5.15;3.08;;;13.30;99.90;;;;;;5013273;28;20030;-73
2023/08/11 00:32:37;;;;;;;6.72;4.00;;;13.30;99.90;;;;;;5014614;28;20077;-73
2023/08/11 00:35:04;;;;;;;5.90;3.40;;;13.30;99.90;;;;;;5014797;28;20157;-73
2023/08/11 00:37:30;;;;;;;5.25;3.28;;;13.30;99.90;;;;;;5014510;28;20041;-73
2023/08/11 00:39:55;;;;;;;5.03;2.90;;;13.20;99.90;;;;;;5014412;28;20034;-73
2023/08/11 00:42:21;;;;;;;4.72;2.65;;;13.20;99.90;;;;;;5014741;28;20040;-73
2023/08/11 00:44:46;;;;;;;3.90;2.40;;;13.20;99.90;;;;;;5014405;28;20030;-73
2023/08/11 00:47:13;;;;;;;5.80;2.17;;;13.20;99.90;;;;;;5014236;28;20392;-73
2023/08/11 00:49:38;;;;;;;3.20;2.00;;;13.10;99.90;;;;;;5014322;28;20080;-73
2023/08/11 00:52:04;;;;;;;4.22;2.40;;;13.10;99.90;;;;;;5013174;28;20034;-73
2023/08/11 00:54:30;;;;;;;4.93;2.33;;;13.00;99.90;;;;;;5014215;28;20105;-73
2023/08/11 00:56:56;;;;;;;4.38;2.50;;;13.00;99.90;;;;;;5014430;28;20109;-73
2023/08/11 00:59:23;;;;;;;4.60;2.20;;;13.00;99.90;;;;;;5014366;28;20407;-73
2023/08/11 01:01:49;;;;;;;4.18;2.30;;;13.00;99.90;;;;;;5014272;28;20088;-73
2023/08/11 01:04:15;;;;;;;3.95;2.42;;;13.00;99.90;;;;;;5014429;28;20030;-73
2023/08/11 01:06:58;;;;;;;3.38;2.30;;;12.90;99.90;;;;;;5023844;28;20037;-73
2023/08/11 01:10:01;;;;;;;3.65;2.38;;;12.90;99.90;;;;;;5001381;28;20029;-74
2023/08/11 01:12:38;;;;;;;4.00;2.28;;;12.90;99.90;;;;;;5018176;28;20033;-73
2023/08/11 01:15:29;;;;;;;5.68;2.92;;;12.80;99.90;;;;;;5013873;28;20080;-73
2023/08/11 01:17:56;;;;;;;5.20;2.63;;;12.70;99.90;;;;;;5014739;28;20040;-73
2023/08/11 01:20:23;;;;;;;3.97;2.38;;;12.70;99.90;;;;;;5014363;28;20084;-73
2023/08/11 01:22:54;;;;;;;3.63;2.22;;;12.70;99.90;;;;;;5012864;28;20018;-73
2023/08/11 01:25:21;;;;;;;5.57;2.40;;;12.60;99.90;;;;;;5013664;28;20022;-73
2023/08/11 01:27:58;;;;;;;3.72;2.42;;;12.50;99.90;;;;;;5012374;28;20425;-73
2023/08/11 01:30:25;;;;;;;4.78;2.47;;;12.50;99.90;;;;;;5015923;28;20029;-73
2023/08/11 01:32:54;;;;;;;3.65;2.40;;;12.50;99.90;;;;;;5013432;28;20037;-73
2023/08/11 01:35:21;;;;;;;5.75;2.63;;;12.40;99.90;;;;;;5013410;28;20392;-73
2023/08/11 01:37:47;;;;;;;3.63;2.38;;;12.30;99.90;;;;;;5013417;28;20037;-73
2023/08/11 01:40:14;;;;;;;4.25;2.42;;;12.30;99.90;;;;;;5012732;28;20021;-73
2023/08/11 01:42:44;;;;;;;4.45;2.40;;;12.20;99.90;;;;;;5012820;28;20029;-73
2023/08/11 01:45:12;;;;;;;3.70;2.15;;;12.20;99.90;;;;;;5012326;28;20025;-73
2023/08/11 01:47:41;;;;;;;4.13;2.53;;;12.10;99.90;;;;;;5014165;28;20037;-73
2023/08/11 01:50:09;;;;;;;4.40;2.88;;;12.10;99.90;;;;;;5013457;28;20022;-73
2023/08/11 01:52:39;;;;;;;4.10;2.47;;;12.10;99.90;;;;;;5013578;28;20030;-73
2023/08/11 01:55:11;;;;;;;5.85;2.20;;;12.20;99.90;;;;;;5013459;28;20045;-73
2023/08/11 01:57:38;;;;;;;6.40;2.40;;;12.20;99.90;;;;;;5013450;28;20030;-73
2023/08/11 02:00:07;;;;;;;3.35;2.10;;;12.20;99.90;;;;;;5013333;28;20030;-73
2023/08/11 02:02:33;;;;;;;2.55;1.90;;;12.20;99.90;;;;;;5013479;28;20030;-73
2023/08/11 02:04:59;;;;;;;3.03;2.22;;;12.20;99.90;;;;;;5012471;28;20041;-73
2023/08/11 02:07:24;;;;;;;4.18;2.40;;;12.20;99.90;;;;;;5013342;28;20034;-73
2023/08/11 02:09:54;;;;;;;3.20;1.83;;;12.20;99.90;;;;;;5013430;28;20036;-73
2023/08/11 02:12:20;;;;;;;4.22;2.30;;;12.20;99.90;;;;;;4980657;28;20049;-73
2023/08/11 02:14:46;;;;;;;3.50;2.30;;;12.20;99.90;;;;;;5013283;28;20026;-73
2023/08/11 02:17:11;;;;;;;3.08;2.22;;;12.20;99.90;;;;;;5013529;28;20038;-73
2023/08/11 02:19:37;;;;;;;3.90;2.38;;;12.20;99.90;;;;;;5011934;28;20037;-73
2023/08/11 02:22:03;;;;;;;4.70;2.22;;;12.20;99.90;;;;;;5013151;28;20507;-73
2023/08/11 02:24:29;;;;;;;4.50;2.42;;;12.20;99.90;;;;;;5013482;28;20092;-73
2023/08/11 02:26:55;;;;;;;4.07;2.20;;;12.20;99.90;;;;;;5013409;28;20033;-73
2023/08/11 02:29:21;;;;;;;3.40;2.33;;;12.20;99.90;;;;;;5013071;28;20026;-73
2023/08/11 02:31:47;;;;;;;5.65;2.28;;;12.20;99.90;;;;;;5013368;28;20528;-73
2023/08/11 02:34:13;;;;;;;4.43;2.60;;;12.20;99.90;;;;;;5013093;28;20443;-73
2023/08/11 02:36:38;;;;;;;3.75;2.28;;;12.20;99.90;;;;;;5013032;28;20030;-73
2023/08/11 02:39:08;;;;;;;6.72;2.72;;;12.20;99.90;;;;;;5013565;28;20034;-73
2023/08/11 02:41:34;;;;;;;4.68;2.50;;;12.20;99.90;;;;;;5013460;28;20049;-73
2023/08/11 02:44:00;;;;;;;4.70;2.65;;;12.30;99.90;;;;;;5016684;28;20034;-73
2023/08/11 02:46:26;;;;;;;4.88;2.78;;;12.30;99.90;;;;;;5015257;28;20036;-73
2023/08/11 02:48:52;;;;;;;5.50;3.40;;;12.20;99.90;;;;;;5016508;28;20030;-73
2023/08/11 02:51:18;;;;;;;6.30;2.97;;;12.10;99.90;;;;;;5016751;28;20025;-72
2023/08/11 02:53:44;;;;;;;8.30;3.78;;;12.10;99.90;;;;;;5016500;28;20033;-73
2023/08/11 02:56:15;;;;;;;5.78;3.63;;;12.00;99.90;;;;;;5017166;28;20038;-72
2023/08/11 02:58:43;;;;;;;8.10;4.93;;;12.10;99.90;;;;;;5016672;28;20070;-73
2023/08/11 03:01:09;;;;;;;11.18;5.55;;;12.10;99.90;;;;;;5016786;28;20030;-74
2023/08/11 03:03:35;;;;;;;9.02;5.70;;;12.10;99.90;;;;;;5016216;28;20033;-74
2023/08/11 03:06:01;;;;;;;12.68;6.13;;;12.10;99.90;;;;;;5016154;28;20034;-74
2023/08/11 03:08:27;;;;;;;10.57;5.82;;;12.10;99.90;;;;;;5014931;28;20508;-74
2023/08/11 03:10:53;;;;;;;9.77;5.53;;;12.10;99.90;;;;;;5016428;28;20030;-74
2023/08/11 03:13:19;;;;;;;10.00;6.15;;;12.20;99.90;;;;;;5016079;28;20076;-75
2023/08/11 03:15:45;;;;;;;12.55;6.30;;;12.20;99.90;;;;;;5015985;28;20034;-74
2023/08/11 03:18:14;;;;;;;13.43;6.55;;;12.20;99.90;;;;;;5015805;28;20382;-73
2023/08/11 03:20:40;;;;;;;9.15;6.03;;;12.20;99.90;;;;;;5015871;28;20431;-74
2023/08/11 03:23:06;;;;;;;9.88;6.00;;;12.20;99.90;;;;;;5016437;28;20109;-74
2023/08/11 03:25:32;;;;;;;8.02;4.80;;;12.20;99.90;;;;;;5016080;28;20500;-74
2023/08/11 03:27:58;;;;;;;8.43;4.97;;;12.20;99.90;;;;;;5015677;28;20049;-74
2023/08/11 03:30:23;;;;;;;6.53;3.70;;;12.20;99.90;;;;;;5015807;28;20026;-74
2023/08/11 03:32:49;;;;;;;5.63;3.70;;;12.20;99.90;;;;;;5015761;28;20044;-74
2023/08/11 03:35:17;;;;;;;5.22;3.80;;;12.20;99.90;;;;;;5015731;28;20080;-74
2023/08/11 03:37:43;;;;;;;5.50;3.63;;;12.20;99.90;;;;;;5014348;28;20034;-74
2023/08/11 03:40:12;;;;;;;6.90;3.53;;;12.20;99.90;;;;;;5014267;28;20030;-74
2023/08/11 03:42:40;;;;;;;7.70;3.90;;;12.20;99.90;;;;;;5015520;28;20440;-74
2023/08/11 03:45:06;;;;;;;6.93;3.75;;;12.10;99.90;;;;;;5014263;28;20488;-74
2023/08/11 03:47:32;;;;;;;6.45;3.85;;;12.10;99.90;;;;;;5015435;28;20550;-74
2023/08/11 03:49:58;;;;;;;5.28;3.13;;;12.10;99.90;;;;;;5015400;28;20097;-74
2023/08/11 03:52:24;;;;;;;5.45;2.92;;;12.10;99.90;;;;;;5014233;28;20026;-73
2023/08/11 03:54:50;;;;;;;5.35;3.25;;;12.10;99.90;;;;;;5015263;28;20022;-74
2023/08/11 03:57:16;;;;;;;5.22;3.50;;;12.10;99.90;;;;;;5015237;28;20028;-74
2023/08/11 03:59:42;;;;;;;5.38;3.67;;;12.10;99.90;;;;;;5015089;28;20416;-74
2023/08/11 04:02:08;;;;;;;6.47;3.28;;;12.00;99.90;;;;;;5015446;28;20033;-74
2023/08/11 04:04:34;;;;;;;5.55;3.50;;;12.00;99.90;;;;;;5015160;28;20034;-74
2023/08/11 04:06:59;;;;;;;6.20;3.70;;;12.00;99.90;;;;;;5015006;28;20080;-74
2023/08/11 04:09:25;;;;;;;4.97;3.25;;;12.00;99.90;;;;;;5014974;28;20034;-74
2023/08/11 04:11:51;;;;;;;4.93;3.38;;;12.00;99.90;;;;;;5015016;28;20037;-74
2023/08/11 04:14:16;;;;;;;4.90;3.45;;;12.00;99.90;;;;;;5014975;28;20030;-74
2023/08/11 04:16:43;;;;;;;4.88;3.47;;;12.00;99.90;;;;;;5013848;28;20034;-74
2023/08/11 04:19:09;;;;;;;4.05;3.17;;;12.00;99.90;;;;;;5014836;28;20407;-74
2023/08/11 04:21:35;;;;;;;5.93;3.78;;;12.00;99.90;;;;;;5015100;28;20030;-74
2023/08/11 04:24:02;;;;;;;4.97;3.47;;;12.00;99.90;;;;;;5013531;28;20117;-74
2023/08/11 04:26:27;;;;;;;4.53;3.40;;;12.00;99.90;;;;;;5013388;28;20492;-74
2023/08/11 04:28:53;;;;;;;3.85;2.90;;;12.00;99.90;;;;;;5014842;28;20046;-73
2023/08/11 04:31:19;;;;;;;4.57;3.22;;;12.00;99.90;;;;;;5014626;28;20392;-73
2023/08/11 04:33:45;;;;;;;4.10;3.03;;;12.00;99.90;;;;;;5014593;28;20030;-74
2023/08/11 04:36:10;;;;;;;4.43;3.47;;;12.00;99.90;;;;;;5013305;28;20038;-73
2023/08/11 04:38:36;;;;;;;5.43;3.20;;;12.00;99.90;;;;;;5014074;28;20093;-73
2023/08/11 04:41:02;;;;;;;4.07;2.95;;;12.10;99.90;;;;;;5014441;28;20030;-73
2023/08/11 04:43:28;;;;;;;4.95;3.53;;;12.10;99.90;;;;;;5014381;28;20488;-73
2023/08/11 04:45:54;;;;;;;5.03;3.35;;;12.10;99.90;;;;;;5014304;28;20030;-73
2023/08/11 04:48:21;;;;;;;4.95;3.17;;;12.00;99.90;;;;;;5014158;28;20110;-73
2023/08/11 04:50:51;;;;;;;4.85;3.33;;;12.10;99.90;;;;;;5014350;28;20424;-72
2023/08/11 04:53:17;;;;;;;6.07;3.47;;;12.10;99.90;;;;;;5012911;28;20033;-73
2023/08/11 04:55:43;;;;;;;5.65;3.58;;;12.10;99.90;;;;;;5014269;28;20029;-73
2023/08/11 04:58:09;;;;;;;5.75;3.90;;;12.10;99.90;;;;;;5014469;28;20113;-73
2023/08/11 05:00:36;;;;;;;6.40;3.85;;;12.10;99.90;;;;;;5014253;28;20045;-73
2023/08/11 05:03:02;;;;;;;4.95;3.47;;;12.10;99.90;;;;;;5014347;28;20022;-73
2023/08/11 05:05:28;;;;;;;5.32;3.13;;;12.10;99.90;;;;;;5014089;28;20034;-73
2023/08/11 05:07:54;;;;;;;5.10;3.22;;;12.10;99.90;;;;;;5012838;28;20503;-73
2023/08/11 05:10:19;;;;;;;4.03;2.72;;;12.10;99.90;;;;;;5012719;28;20503;-73
2023/08/11 05:12:47;;;;;;;3.72;2.80;;;12.10;99.90;;;;;;5014120;28;20022;-74
2023/08/11 05:15:13;;;;;;;3.83;2.80;;;12.10;99.90;;;;;;5013916;28;20032;-74
2023/08/11 05:17:38;;;;;;;4.70;3.08;;;12.10;99.90;;;;;;5012505;28;20116;-74
2023/08/11 05:20:08;;;;;;;4.72;3.25;;;12.10;99.90;;;;;;4996254;28;20580;-73
2023/08/11 05:22:35;;;;;;;3.85;2.90;;;12.20;99.90;;;;;;5013858;28;20057;-74
2023/08/11 05:25:03;;;;;;;4.43;2.90;;;12.20;99.90;;;;;;5014198;28;20507;-73
2023/08/11 05:27:29;;;;;;;4.88;2.90;;;12.20;99.90;;;;;;5015195;28;20084;-73
2023/08/11 05:29:54;;;;;;;4.00;2.63;;;12.20;99.90;;;;;;5013794;28;20030;-74
2023/08/11 05:32:20;;;;;;;3.75;2.60;;;12.10;99.90;;;;;;5013991;28;20033;-75
2023/08/11 05:34:46;;;;;;;4.18;2.90;;;12.20;99.90;;;;;;5012853;28;20030;-75
2023/08/11 05:37:12;;;;;;;3.75;2.67;;;12.20;99.90;;;;;;5013690;28;20520;-74
2023/08/11 05:39:41;;;;;;;3.90;2.85;;;12.20;99.90;;;;;;5013625;28;20026;-74
2023/08/11 05:42:07;;;;;;;4.03;2.75;;;12.10;99.90;;;;;;5012232;28;20057;-73
2023/08/11 05:44:33;;;;;;;4.30;3.15;;;12.20;99.90;;;;;;5013790;28;20029;-76
2023/08/11 05:46:59;;;;;;;4.78;3.05;;;12.20;99.90;;;;;;5013356;28;20033;-74
2023/08/11 05:49:25;;;;;;;5.53;3.70;;;12.30;99.90;;;;;;5012410;28;20033;-75
2023/08/11 05:51:50;;;;;;;4.63;3.00;;;12.30;99.90;;;;;;5013564;28;20026;-74
2023/08/11 05:54:16;;;;;;;5.55;3.70;;;12.30;99.90;;;;;;5013630;28;20113;-74
2023/08/11 05:56:42;;;;;;;5.65;3.15;;;12.40;99.90;;;;;;5013546;28;20088;-74
2023/08/11 05:59:08;;;;;;;6.35;3.72;;;12.30;99.90;;;;;;5013426;28;20548;-73
2023/08/11 06:01:34;;;;;;;5.68;3.67;;;12.30;99.90;;;;;;5013736;28;20034;-74
2023/08/11 06:04:00;;;;;;;7.55;4.88;;;12.30;99.90;;;;;;5013366;28;20030;-74
2023/08/11 06:06:26;;;;;;;8.15;5.25;;;12.40;99.90;;;;;;5012440;28;20472;-74
2023/08/11 06:08:54;;;;;;;8.13;5.22;;;12.40;99.90;;;;;;5013479;28;20026;-74
2023/08/11 06:11:20;;;;;;;6.25;4.20;;;12.40;99.90;;;;;;5013603;28;20117;-73
2023/08/11 06:13:46;;;;;;;5.55;4.10;;;12.40;99.90;;;;;;5013869;28;20077;-74
2023/08/11 06:16:11;;;;;;;5.72;4.10;;;12.40;99.90;;;;;;5013471;28;20033;-74
2023/08/11 06:18:38;;;;;;;4.05;3.17;;;12.50;99.90;;;;;;5016527;28;20042;-73
2023/08/11 06:21:04;;;;;;;5.53;3.60;;;12.50;99.90;;;;;;5017088;28;20033;-74
2023/08/11 06:23:33;;;;;;;5.97;4.00;;;12.60;99.90;;;;;;5017093;28;20083;-74
2023/08/11 06:25:59;;;;;;;4.95;3.80;;;12.70;99.90;;;;;;5017423;28;20034;-74
2023/08/11 06:28:24;;;;;;;5.38;3.92;;;12.80;99.90;;;;;;5017146;28;20029;-74
2023/08/11 06:30:50;;;;;;;5.15;3.70;;;12.80;99.90;;;;;;5016947;28;20026;-74
2023/08/11 06:33:16;;;;;;;5.60;3.90;;;12.90;99.90;;;;;;5016861;28;20061;-74
2023/08/11 06:35:42;;;;;;;6.53;4.75;;;12.90;99.90;;;;;;5016799;28;20057;-74
2023/08/11 06:38:11;;;;;;;5.43;4.05;;;13.00;99.90;;;;;;5016792;28;20029;-74
2023/08/11 06:40:40;;;;;;;6.45;4.82;;;13.00;99.90;;;;;;5016845;28;20484;-74
2023/08/11 06:43:06;;;;;;;6.75;4.53;;;13.00;99.90;;;;;;5015448;28;20030;-74
2023/08/11 06:45:32;;;;;;;6.63;4.63;;;13.10;99.90;;;;;;5016586;28;20098;-74
2023/08/11 06:47:59;;;;;;;4.97;3.63;;;13.10;99.90;;;;;;5016410;28;20113;-74
2023/08/11 06:50:25;;;;;;;5.13;3.70;;;13.10;99.90;;;;;;5016540;28;20109;-74
2023/08/11 06:52:50;;;;;;;6.88;4.45;;;13.20;99.90;;;;;;5015188;28;20068;-74
2023/08/11 06:55:16;;;;;;;8.70;5.95;;;13.30;99.90;;;;;;5016422;28;20057;-74
2023/08/11 06:57:42;;;;;;;8.70;5.57;;;13.30;99.90;;;;;;5016372;28;20030;-75
2023/08/11 07:00:08;;;;;;;7.90;5.30;;;13.30;99.90;;;;;;5016354;28;20511;-76
2023/08/11 07:02:34;;;;;;;9.60;7.05;;;13.40;99.90;;;;;;5016555;28;20084;-76
2023/08/11 07:05:01;;;;;;;8.93;6.70;;;13.50;99.90;;;;;;5016252;28;20105;-75
2023/08/11 07:07:27;;;;;;;8.38;6.03;;;13.60;99.90;;;;;;5016265;28;20116;-76
2023/08/11 07:09:53;;;;;;;7.35;5.38;;;13.80;99.90;;;;;;4998631;28;20057;-75
2023/08/11 07:12:18;;;;;;;6.75;5.05;;;13.80;99.90;;;;;;4998542;28;20481;-76
2023/08/11 07:14:44;;;;;;;7.63;5.35;;;13.90;99.90;;;;;;5016143;28;20702;-75
2023/08/11 07:17:10;;;;;;;8.20;5.82;;;14.00;99.90;;;;;;5016153;28;20030;-75
2023/08/11 07:19:36;;;;;;;8.02;5.75;;;14.10;99.90;;;;;;5014645;28;20084;-74
2023/08/11 07:22:02;;;;;;;11.00;6.50;;;14.30;99.90;;;;;;5016062;28;20037;-74
2023/08/11 07:24:28;;;;;;;8.77;5.55;;;14.40;99.90;;;;;;5015858;28;20030;-74
2023/08/11 07:26:54;;;;;;;8.32;5.70;;;14.60;99.90;;;;;;5016011;28;20041;-74
2023/08/11 07:29:19;;;;;;;8.35;6.03;;;14.70;99.90;;;;;;5013997;28;20125;-74
2023/08/11 07:31:45;;;;;;;7.68;4.70;;;14.80;99.90;;;;;;5015742;28;20077;-75
2023/08/11 07:34:11;;;;;;;6.28;5.13;;;14.90;99.90;;;;;;5015837;28;20029;-75
2023/08/11 07:36:37;;;;;;;5.38;4.00;;;15.10;99.90;;;;;;5015949;28;20030;-76
2023/08/11 07:39:07;;;;;;;6.35;4.60;;;15.20;99.90;;;;;;5014365;28;20554;-76
2023/08/11 07:41:32;;;;;;;5.97;4.15;;;15.30;99.90;;;;;;5016321;28;20116;-75
2023/08/11 07:43:58;;;;;;;6.50;4.18;;;15.40;99.90;;;;;;5016899;28;20069;-76
2023/08/11 07:46:24;;;;;;;6.68;4.30;;;15.50;99.90;;;;;;4998946;28;20030;-76
2023/08/11 07:48:49;;;;;;;6.13;3.90;;;15.60;99.90;;;;;;5015050;28;20030;-75
2023/08/11 07:51:15;;;;;;;7.00;4.53;;;15.70;99.90;;;;;;5014758;28;20117;-76
2023/08/11 07:53:41;;;;;;;5.10;3.65;;;15.90;99.90;;;;;;5014378;28;20472;-76
2023/08/11 07:56:08;;;;;;;8.60;4.57;;;16.10;99.90;;;;;;5015780;28;20028;-76
2023/08/11 07:58:33;;;;;;;5.30;4.10;;;16.20;99.90;;;;;;5015461;28;20157;-76
2023/08/11 08:01:01;;;;;;;8.38;4.00;;;16.40;99.90;;;;;;5015145;28;20108;-76
2023/08/11 08:03:27;;;;;;;6.75;4.15;;;16.50;99.90;;;;;;5014043;28;20022;-76
2023/08/11 08:05:53;;;;;;;5.68;3.90;;;16.70;99.90;;;;;;5014164;28;20393;-76
2023/08/11 08:08:18;;;;;;;5.13;3.88;;;16.90;99.90;;;;;;5015395;28;20026;-76
2023/08/11 08:10:44;;;;;;;6.20;3.75;;;17.10;99.90;;;;;;4997569;28;20025;-76
2023/08/11 08:13:10;;;;;;;4.95;3.45;;;17.20;99.90;;;;;;5015309;28;20026;-76
2023/08/11 08:15:35;;;;;;;4.97;3.45;;;17.40;99.90;;;;;;4997517;28;20033;-76
2023/08/11 08:18:01;;;;;;;6.05;4.07;;;17.60;99.90;;;;;;5014779;28;20527;-76
2023/08/11 08:20:27;;;;;;;7.85;4.95;;;17.70;99.90;;;;;;5016046;28;20056;-76
2023/08/11 08:22:52;;;;;;;6.30;4.22;;;17.90;99.90;;;;;;5013657;28;20042;-76
2023/08/11 08:25:18;;;;;;;5.55;3.95;;;18.10;99.90;;;;;;5013654;28;20026;-76
2023/08/11 08:27:45;;;;;;;5.60;4.00;;;18.20;99.90;;;;;;4997122;28;20484;-76
2023/08/11 08:30:11;;;;;;;5.00;3.63;;;18.40;99.90;;;;;;4997411;28;20050;-76
2023/08/11 08:32:39;;;;;;;4.60;3.40;;;18.60;99.90;;;;;;5014710;28;20026;-76
2023/08/11 08:35:06;;;;;;;6.82;4.40;;;18.70;99.90;;;;;;5013284;28;20018;-76
2023/08/11 08:37:32;;;;;;;6.50;4.03;;;18.90;99.90;;;;;;5014583;28;20038;-76
2023/08/11 08:39:58;;;;;;;4.47;3.50;;;19.00;99.90;;;;;;5013678;28;20033;-76
2023/08/11 08:42:25;;;;;;;6.63;3.97;;;19.20;99.90;;;;;;5013378;28;20029;-76
2023/08/11 08:44:53;;;;;;;5.20;3.80;;;19.30;99.90;;;;;;5014530;28;20037;-76
2023/08/11 08:47:21;;;;;;;6.63;4.20;;;19.40;99.90;;;;;;5013144;28;20096;-76
2023/08/11 08:49:48;;;;;;;4.80;3.90;;;19.50;99.90;;;;;;5014299;28;20030;-76
2023/08/11 08:52:15;;;;;;;4.88;3.95;;;19.60;99.90;;;;;;5013120;28;20435;-76
2023/08/11 08:54:41;;;;;;;6.05;4.20;;;19.80;99.90;;;;;;5014455;28;20459;-76
2023/08/11 08:57:11;;;;;;;5.18;4.20;;;19.90;99.90;;;;;;5014299;28;20068;-76
2023/08/11 08:59:37;;;;;;;4.35;3.60;;;20.10;99.90;;;;;;5013321;28;20029;-76
2023/08/11 09:02:04;;;;;;;5.38;3.80;;;20.20;99.90;;;;;;5014204;28;20022;-76
2023/08/11 09:04:30;;;;;;;7.15;4.03;;;20.40;99.90;;;;;;5014911;28;20022;-75
2023/08/11 09:06:56;;;;;;;6.65;4.28;;;20.50;99.90;;;;;;5012898;28;20034;-75
2023/08/11 09:09:23;;;;;;;4.97;3.80;;;20.60;99.90;;;;;;5014011;28;20042;-75
2023/08/11 09:11:50;;;;;;;7.75;3.90;;;20.70;99.90;;;;;;5014138;28;20022;-75
2023/08/11 09:14:17;;;;;;;6.07;4.00;;;20.90;99.90;;;;;;5014080;28;20100;-75
2023/08/11 09:16:43;;;;;;;5.10;3.70;;;21.00;99.90;;;;;;5012807;28;20144;-76
2023/08/11 09:19:11;;;;;;;4.28;3.13;;;21.20;99.90;;;;;;5013760;28;20480;-76
2023/08/11 09:21:39;;;;;;;5.32;3.83;;;21.30;99.90;;;;;;5014102;28;20039;-76
2023/08/11 09:24:10;;;;;;;4.60;3.65;;;21.40;99.90;;;;;;5013876;28;20029;-75
2023/08/11 09:26:36;;;;;;;4.75;3.38;;;21.50;99.90;;;;;;5013908;28;20033;-76
2023/08/11 09:29:01;;;;;;;5.95;3.55;;;21.60;99.90;;;;;;5013790;28;20041;-75
2023/08/11 09:31:27;;;;;;;5.95;3.42;;;21.70;99.90;;;;;;5013824;28;20028;-76
2023/08/11 09:33:53;;;;;;;4.38;3.30;;;21.80;99.90;;;;;;5012682;28;20026;-76
2023/08/11 09:36:19;;;;;;;6.47;3.55;;;22.00;99.90;;;;;;5014700;28;20030;-76
2023/08/11 09:38:49;;;;;;;4.85;3.45;;;22.10;99.90;;;;;;5014361;28;20034;-75
2023/08/11 09:41:16;;;;;;;4.13;3.00;;;22.20;99.90;;;;;;5013630;28;20052;-75
2023/08/11 09:43:47;;;;;;;4.57;3.17;;;22.40;99.90;;;;;;5012683;28;20366;-76
2023/08/11 09:46:13;;;;;;;6.00;2.85;;;22.50;99.90;;;;;;5013471;28;20026;-75
2023/08/11 09:48:39;;;;;;;4.18;2.42;;;22.60;99.90;;;;;;5013547;28;20022;-75
2023/08/11 09:51:10;;;;;;;4.85;2.63;;;22.70;99.90;;;;;;5014542;28;20033;-76
2023/08/11 09:53:40;;;;;;;4.47;2.78;;;22.90;99.90;;;;;;5017730;28;20108;-76
2023/08/11 09:56:07;;;;;;;3.63;2.70;;;22.90;99.90;;;;;;5018470;28;20026;-76
2023/08/11 09:58:38;;;;;;;3.42;2.65;;;23.10;99.90;;;;;;5017759;28;20388;-76
2023/08/11 10:01:07;;;;;;;5.57;3.00;;;23.20;99.90;;;;;;5016318;28;20026;-76
2023/08/11 10:03:41;;;;;;;3.67;2.63;;;23.30;99.90;;;;;;5017748;28;20063;-76
2023/08/11 10:06:09;;;;;;;3.83;2.75;;;23.40;99.90;;;;;;5018218;28;20022;-76
2023/08/11 10:08:35;;;;;;;3.03;2.53;;;23.50;99.90;;;;;;5017296;28;20049;-75
2023/08/11 10:11:01;;;;;;;3.58;2.58;;;23.70;99.90;;;;;;5017200;28;20113;-76
2023/08/11 10:13:28;;;;;;;4.00;2.17;;;23.80;99.90;;;;;;5006346;28;20471;-76
2023/08/11 10:15:55;;;;;;;3.50;2.75;;;23.90;99.90;;;;;;4996355;28;20162;-76
2023/08/11 10:18:21;;;;;;;2.95;2.22;;;24.10;99.90;;;;;;4997721;28;20488;-76
2023/08/11 10:20:50;;;;;;;5.93;2.60;;;24.20;99.90;;;;;;4997547;28;20076;-76
2023/08/11 10:23:17;;;;;;;4.18;2.38;;;24.30;99.90;;;;;;4997499;28;20432;-76
2023/08/11 10:25:47;;;;;;;4.85;2.58;;;24.40;99.90;;;;;;4996089;28;20081;-75
2023/08/11 10:28:14;;;;;;;3.40;2.10;;;24.60;99.90;;;;;;4997388;28;20026;-76
2023/08/11 10:30:42;;;;;;;2.60;1.73;;;24.70;99.90;;;;;;4997298;28;20061;-76
2023/08/11 10:33:09;;;;;;;4.75;2.35;;;24.80;99.80;;;;;;4996205;28;20481;-76
2023/08/11 10:35:46;;;;;;;4.60;2.22;;;24.90;99.90;;;;;;4997234;28;20095;-75
2023/08/11 10:38:12;;;;;;;3.65;2.35;;;25.10;99.70;;;;;;4997128;28;20034;-76
2023/08/11 10:40:39;;;;;;;4.00;1.80;;;25.20;98.60;;;;;;4997228;28;20034;-76
2023/08/11 10:43:06;;;;;;;3.28;2.00;;;25.20;97.60;;;;;;4997134;28;20030;-76
2023/08/11 10:45:36;;;;;;;2.25;1.52;;;25.30;97.00;;;;;;4997045;28;20034;-76
2023/08/11 10:48:09;;;;;;;2.53;1.98;;;25.40;96.20;;;;;;4997132;28;20022;-76
2023/08/11 10:50:37;;;;;;;2.63;1.67;;;25.50;96.10;;;;;;4995724;28;20129;-76
2023/08/11 10:53:20;;;;;;;2.40;1.90;;;25.50;95.60;;;;;;4995691;28;20022;-76
2023/08/11 10:56:00;;;;;;;2.60;1.65;;;25.60;96.60;;;;;;4997184;28;20037;-76
2023/08/11 10:58:28;;;;;;;2.72;1.60;;;25.80;95.60;;;;;;4996838;28;20022;-76
2023/08/11 11:00:54;;;;;;;1.73;1.30;;;25.90;95.20;;;;;;4996997;28;20022;-75
2023/08/11 11:03:21;;;;;;;2.40;1.55;;;25.90;95.40;;;;;;4995865;28;20114;-76
2023/08/11 11:05:47;;;;;;;2.35;1.65;;;26.00;94.80;;;;;;4996690;28;20026;-75
2023/08/11 11:08:12;;;;;;;3.20;1.98;;;26.10;93.70;;;;;;4996519;28;20566;-76
2023/08/11 11:10:38;;;;;;;3.72;1.60;;;26.20;93.60;;;;;;4996427;28;20088;-75
2023/08/11 11:13:04;;;;;;;3.30;1.80;;;26.30;93.00;;;;;;4996705;28;20034;-75
2023/08/11 11:15:31;;;;;;;2.20;1.45;;;26.40;92.40;;;;;;4995499;28;20039;-76
2023/08/11 11:17:59;;;;;;;2.28;1.63;;;26.50;92.30;;;;;;4996098;28;20027;-75
2023/08/11 11:20:25;;;;;;;3.70;1.83;;;26.60;91.70;;;;;;4996424;28;20027;-75
2023/08/11 11:22:51;;;;;;;3.53;2.03;;;26.60;90.30;;;;;;4996340;28;20029;-75
2023/08/11 11:25:21;;;;;;;3.50;1.70;;;26.70;90.40;;;;;;4996936;28;20377;-76
2023/08/11 11:27:47;;;;;;;2.50;1.58;;;26.80;91.90;;;;;;4994713;28;20489;-76
2023/08/11 11:30:13;;;;;;;3.22;1.75;;;26.90;92.00;;;;;;4996134;28;20034;-76
2023/08/11 11:32:39;;;;;;;3.65;1.90;;;27.10;91.30;;;;;;4996055;28;20542;-76
2023/08/11 11:35:06;;;;;;;2.72;1.88;;;27.20;90.50;;;;;;4995966;28;20436;-75
2023/08/11 11:37:36;;;;;;;3.20;1.95;;;27.30;92.40;;;;;;4996039;28;20033;-74
2023/08/11 11:40:06;;;;;;;3.10;2.28;;;27.40;90.20;;;;;;4995756;28;20022;-75
2023/08/11 11:42:34;;;;;;;;;;;27.50;90.50;;;;;;4996503;28;20026;-75
2023/08/11 11:45:00;;;;;;;3.08;2.00;;;27.60;88.00;;;;;;4996149;28;19906;-75
2023/08/11 11:47:26;;;;;;;2.30;1.80;;;27.70;89.50;;;;;;4996430;28;20038;-75
2023/08/11 11:49:55;;;;;;;2.97;1.70;;;27.80;86.30;;;;;;4995759;28;20496;-75
2023/08/11 11:52:21;;;;;;;3.13;1.80;;;27.90;87.00;;;;;;4996183;28;20113;-75
2023/08/11 11:54:54;;;;;;;2.80;1.88;;;28.00;83.00;;;;;;4994383;28;20054;-74
2023/08/11 11:57:23;;;;;;;2.40;1.50;;;28.00;81.80;;;;;;4995950;28;20487;-75
2023/08/11 11:59:50;;;;;;;3.28;1.63;;;28.10;79.80;;;;;;4995649;28;20034;-74
2023/08/11 12:02:17;;;;;;;2.80;1.85;;;28.10;83.40;;;;;;4994425;28;20050;-74
2023/08/11 12:04:44;;;;;;;4.65;1.95;;;28.20;83.60;;;;;;4995622;28;20034;-74
2023/08/11 12:07:23;;;;;;;5.05;1.90;;;28.30;84.30;;;;;;4995429;28;20045;-74
2023/08/11 12:09:53;;;;;;;6.68;2.47;;;28.40;82.00;;;;;;4995442;28;20470;-74
2023/08/11 12:12:19;;;;;;;5.00;2.53;;;28.50;82.20;;;;;;4995416;28;20481;-74
2023/08/11 12:14:44;;;;;;;4.50;1.77;;;28.60;83.90;;;;;;4995378;28;20032;-74
2023/08/11 12:17:10;;;;;;;2.70;1.70;;;28.60;80.60;;;;;;4995662;28;20113;-75
2023/08/11 12:19:36;;;;;;;3.30;1.77;;;28.60;81.60;;;;;;4995118;28;20034;-74
2023/08/11 12:22:02;;;;;;;2.22;1.60;;;28.60;82.00;;;;;;4994002;28;20030;-74
2023/08/11 12:24:28;;;;;;;2.45;1.67;;;28.60;83.00;;;;;;4994046;28;20030;-74
2023/08/11 12:26:54;;;;;;;3.53;2.00;;;28.60;80.40;;;;;;4995120;28;20049;-74
2023/08/11 12:29:19;;;;;;;2.60;1.60;;;28.70;83.20;;;;;;4995050;28;20077;-75
2023/08/11 12:31:45;;;;;;;2.55;1.80;;;28.70;84.30;;;;;;4998818;28;20416;-75
2023/08/11 12:34:11;;;;;;;3.97;1.85;;;28.80;83.10;;;;;;4993728;28;20030;-75
2023/08/11 12:36:36;;;;;;;1.92;1.67;;;28.80;82.70;;;;;;4992897;28;20061;-75
2023/08/11 12:39:03;;;;;;;3.17;1.75;;;28.80;82.80;;;;;;4993224;28;20592;-75
2023/08/11 12:41:29;;;;;;;2.45;1.42;;;28.90;81.00;;;;;;4993264;28;20035;-75
2023/08/11 12:43:54;;;;;;;2.45;1.67;;;29.00;79.10;;;;;;4993351;28;20031;-75
2023/08/11 12:46:20;;;;;;;2.78;1.80;;;29.10;80.40;;;;;;4993544;28;20389;-75